Time;durP1;ratioP1;P1;durP2;ratioP2;P2;SDS_P1;SDS_P2;PMS_P1;PMS_P2;Temp;Humidity;BMP_temperature;BMP_pressure;BME280_temperature;BME280_humidity;BME280_pressure;Samples;Min_cycle;Max_cycle;Signal;HPM_P1;HPM_P2
2023/05/16 05:47:45;;;;;;;;;;;;;;;;;;5688304;23;19923;-82
2023/05/16 05:50:11;;;;;;;;;;;;;;;;;;4903338;28;20257;-81
2023/05/16 05:52:37;;;;;;;;;;;;;;;;;;4916019;29;19927;-80
2023/05/16 05:55:02;;;;;;;;;;;;;;;;;;4905448;29;20403;-81
2023/05/16 05:57:27;;;;;;;;;;;;;;;;;;4882988;29;19934;-82
2023/05/16 05:59:53;;;;;;;;;;;;;;;;;;4877147;29;20357;-81
2023/05/16 06:02:18;;;;;;;;;;;;;;;;;;4877866;29;20099;-82
2023/05/16 06:04:44;;;;;;;;;;;;;;;;;;4878377;29;20396;-83
2023/05/16 06:07:09;;;;;;;;;;;;;;;;;;4878073;29;19979;-81
2023/05/16 06:09:34;;;;;;;;;;;;;;;;;;4878407;29;19920;-83
2023/05/16 06:12:00;;;;;;;;;;;;;;;;;;4894910;29;20105;-84
2023/05/16 06:14:25;;;;;;;;;;;;;;;;;;4896323;29;19923;-83
2023/05/16 06:16:50;;;;;;;;;;;;;;;;;;4896621;29;19919;-82
2023/05/16 06:19:16;;;;;;;;;;;;;;;;;;4897326;29;19990;-82
2023/05/16 06:21:42;;;;;;;;;;;;;;;;;;4895589;29;19920;-83
2023/05/16 06:24:07;;;;;;;;;;;;;;;;;;4896297;29;19923;-83
2023/05/16 06:26:32;;;;;;;;;;;;;;;;;;4896550;29;19927;-82
2023/05/16 06:28:57;;;;;;;;;;;;;;;;;;4895603;29;19919;-83
2023/05/16 06:31:23;;;;;;;;;;;;;;;;;;4896233;29;19938;-82
2023/05/16 06:33:49;;;;;;;;;;;;;;;;;;4915313;29;20005;-83
2023/05/16 06:36:14;;;;;;;;;;;;;;;;;;4915249;29;19938;-81
2023/05/16 06:38:39;;;;;;;;;;;;;;;;;;4929802;29;19923;-83
2023/05/16 06:41:04;;;;;;;;;;;;;;;;;;4915341;29;19966;-83
2023/05/16 06:43:30;;;;;;;;;;;;;;;;;;4915753;29;19934;-82
2023/05/16 06:45:55;;;;;;;;;;;;;;;;;;4915112;29;19926;-83
2023/05/16 06:48:20;;;;;;;;;;;;;;;;;;4914579;29;19969;-82
2023/05/16 06:50:46;;;;;;;;;;;;;;;;;;4916034;29;20098;-81
2023/05/16 06:53:12;;;;;;;;;;;;;;;;;;4914617;29;19971;-82
2023/05/16 06:55:37;;;;;;;;;;;;;;;;;;4915429;29;19922;-82
2023/05/16 06:58:02;;;;;;;;;;;;;;;;;;4916199;29;20415;-80
2023/05/16 07:00:27;;;;;;;;;;;;;;;;;;4914888;29;19926;-82
2023/05/16 07:02:53;;;;;;;;;;;;;;;;;;4915525;29;19962;-81
2023/05/16 07:05:18;;;;;;;;;;;;;;;;;;4915424;29;19922;-81
2023/05/16 07:07:44;;;;;;;;;;;;;;;;;;4915948;29;20023;-81
2023/05/16 07:10:09;;;;;;;;;;;;;;;;;;4914890;29;20375;-82
2023/05/16 07:12:38;;;;;;;;;;;;;;;;;;4915496;29;20335;-81
2023/05/16 07:15:03;;;;;;;;;;;;;;;;;;4915234;29;19923;-82
2023/05/16 07:17:28;;;;;;;;;;;;;;;;;;4914587;29;19930;-81
2023/05/16 07:19:54;;;;;;;;;;;;;;;;;;4915153;29;19934;-83
2023/05/16 07:22:19;;;;;;;;;;;;;;;;;;4914325;29;19923;-83
2023/05/16 07:24:45;;;;;;;;;;;;;;;;;;4914992;29;19930;-83
2023/05/16 07:27:10;;;;;;;;;;;;;;;;;;4914737;29;20030;-82
2023/05/16 07:29:37;;;;;;;;;;;;;;;;;;4911363;29;19931;-82
2023/05/16 07:32:02;;;;;;;;;;;;;;;;;;4900641;29;19923;-81
2023/05/16 07:34:27;;;;;;;;;;;;;;;;;;4914547;29;20443;-81
2023/05/16 07:36:52;;;;;;;;;;;;;;;;;;4914842;29;19923;-81
2023/05/16 07:39:18;;;;;;;;;;;;;;;;;;4914305;29;20399;-82
2023/05/16 07:41:43;;;;;;;;;;;;;;;;;;4914823;29;19985;-79
2023/05/16 07:44:08;;;;;;;;;;;;;;;;;;4914063;29;19923;-81
2023/05/16 07:46:34;;;;;;;;;;;;;;;;;;4914303;29;19923;-83
2023/05/16 07:48:59;;;;;;;;;;;;;;;;;;4914775;29;19930;-83
2023/05/16 07:51:24;;;;;;;;;;;;;;;;;;4913839;29;20307;-83
2023/05/16 07:53:50;;;;;;;;;;;;;;;;;;4914474;29;19982;-83
2023/05/16 07:56:16;;;;;;;;;;;;;;;;;;4914319;29;19923;-83
2023/05/16 07:58:41;;;;;;;;;;;;;;;;;;4914648;29;19922;-82
2023/05/16 08:01:07;;;;;;;;;;;;;;;;;;4913971;29;20318;-84
2023/05/16 08:03:32;;;;;;;;;;;;;;;;;;4914645;29;19923;-83
2023/05/16 08:05:57;;;;;;;;;;;;;;;;;;4914651;29;19979;-84
2023/05/16 08:08:22;;;;;;;;;;;;;;;;;;4913992;29;20406;-83
2023/05/16 08:10:48;;;;;;;;;;;;;;;;;;4914696;29;20009;-83
2023/05/16 08:13:13;;;;;;;;;;;;;;;;;;4917657;29;19934;-82
2023/05/16 08:15:38;;;;;;;;;;;;;;;;;;4914627;29;19927;-83
2023/05/16 08:18:06;;;;;;;;;;;;;;;;;;4914302;29;19930;-82
2023/05/16 08:20:31;;;;;;;;;;;;;;;;;;4914367;29;19927;-83
2023/05/16 08:22:56;;;;;;;;;;;;;;;;;;4914730;29;19979;-83
2023/05/16 08:25:22;;;;;;;;;;;;;;;;;;4914007;29;19934;-82
2023/05/16 08:27:48;;;;;;;;;;;;;;;;;;4914148;29;20129;-83
2023/05/16 08:30:13;;;;;;;;;;;;;;;;;;4905306;29;19923;-83
2023/05/16 08:32:38;;;;;;;;;;;;;;;;;;4904926;29;19930;-83
2023/05/16 08:35:04;;;;;;;;;;;;;;;;;;4913992;29;19928;-83
2023/05/16 08:37:29;;;;;;;;;;;;;;;;;;4914082;29;19923;-83
2023/05/16 08:39:55;;;;;;;;;;;;;;;;;;4916636;29;19962;-84
2023/05/16 08:42:20;;;;;;;;;;;;;;;;;;4916959;29;20284;-83
2023/05/16 08:44:45;;;;;;;;;;;;;;;;;;4917398;29;19954;-84
2023/05/16 08:47:16;;;;;;;;;;;;;;;;;;4917134;29;20026;-84
2023/05/16 08:49:42;;;;;;;;;;;;;;;;;;4917535;29;19931;-84
2023/05/16 08:52:08;;;;;;;;;;;;;;;;;;4931734;29;19948;-82
2023/05/16 08:54:33;;;;;;;;;;;;;;;;;;4917281;29;19939;-85
2023/05/16 08:56:59;;;;;;;;;;;;;;;;;;4917377;29;20296;-85
2023/05/16 08:59:24;;;;;;;;;;;;;;;;;;4917378;29;19930;-83
2023/05/16 09:01:50;;;;;;;;;;;;;;;;;;4917341;29;19931;-84
2023/05/16 09:04:15;;;;;;;;;;;;;;;;;;4916815;29;19929;-83
2023/05/16 09:06:41;;;;;;;;;;;;;;;;;;4917326;29;19946;-84
2023/05/16 09:09:08;;;;;;;;;;;;;;;;;;4916527;29;19925;-83
2023/05/16 09:11:34;;;;;;;;;;;;;;;;;;4917807;29;20311;-84
2023/05/16 09:13:59;;;;;;;;;;;;;;;;;;4917212;29;20053;-85
2023/05/16 09:16:24;;;;;;;;;;;;;;;;;;4931111;29;20387;-85
2023/05/16 09:18:59;;;;;;;;;;;;;;;;;;4917333;29;20356;-84
2023/05/16 09:21:27;;;;;;;;;;;;;;;;;;4916660;29;19919;-84
2023/05/16 09:23:52;;;;;;;;;;;;;;;;;;4916861;29;19949;-83
2023/05/16 09:26:17;;;;;;;;;;;;;;;;;;4917091;29;20010;-83
2023/05/16 09:28:43;;;;;;;;;;;;;;;;;;4916856;29;19927;-83
2023/05/16 09:31:21;;;;;;;;;;;;;;;;;;4900841;29;19923;-85
2023/05/16 09:33:48;;;;;;;;;;;;;;;;;;4916550;29;20403;-83
2023/05/16 09:36:14;;;;;;;;;;;;;;;;;;4916032;29;20348;-83
2023/05/16 09:38:39;;;;;;;;;;;;;;;;;;4916743;29;19923;-83
2023/05/16 09:41:05;;;;;;;;;;;;;;;;;;4915703;29;19946;-82
2023/05/16 09:43:30;;;;;;;;;;;;;;;;;;4916450;29;19923;-84
2023/05/16 09:45:58;;;;;;;;;;;;;;;;;;4916380;29;19966;-82
2023/05/16 09:48:27;;;;;;;;;;;;;;;;;;4916282;29;20049;-84
2023/05/16 09:50:53;;;;;;;;;;;;;;;;;;4914959;29;20233;-83
2023/05/16 09:53:28;;;;;;;;;;;;;;;;;;4916308;29;20033;-83
2023/05/16 09:56:03;;;;;;;;;;;;;;;;;;4916504;29;20534;-84
2023/05/16 09:58:33;;;;;;;;;;;;;;;;;;4916463;29;19919;-82
2023/05/16 10:00:59;;;;;;;;;;;;;;;;;;4916869;29;19990;-83
2023/05/16 10:03:25;;;;;;;;;;;;;;;;;;4915874;29;20059;-84
2023/05/16 10:05:51;;;;;;;;;;;;;;;;;;4915877;29;19927;-82
2023/05/16 10:08:18;;;;;;;;;;;;;;;;;;4915381;29;20383;-83
2023/05/16 10:10:44;;;;;;;;;;;;;;;;;;4916359;29;20062;-83
2023/05/16 10:13:10;;;;;;;;;;;;;;;;;;4915700;29;20021;-83
2023/05/16 10:15:36;;;;;;;;;;;;;;;;;;4916049;29;20384;-84
2023/05/16 10:18:02;;;;;;;;;;;;;;;;;;4916043;29;19950;-84
2023/05/16 10:20:28;;;;;;;;;;;;;;;;;;4915598;29;20014;-81
2023/05/16 10:22:55;;;;;;;;;;;;;;;;;;4915908;29;20021;-81
2023/05/16 10:25:35;;;;;;;;;;;;;;;;;;4915598;29;19978;-81
2023/05/16 10:28:01;;;;;;;;;;;;;;;;;;4915647;29;19934;-81
2023/05/16 10:30:27;;;;;;;;;;;;;;;;;;4905245;29;19923;-81
2023/05/16 10:32:52;;;;;;;;;;;;;;;;;;4908392;29;20261;-82
2023/05/16 10:35:18;;;;;;;;;;;;;;;;;;4915065;29;20253;-82
2023/05/16 10:37:45;;;;;;;;;;;;;;;;;;4915616;29;19923;-82
2023/05/16 10:40:10;;;;;;;;;;;;;;;;;;4915233;29;20305;-82
2023/05/16 10:42:36;;;;;;;;;;;;;;;;;;4915399;29;19978;-82
2023/05/16 10:45:27;;;;;;;;;;;;;;;;;;4915347;29;19926;-83
2023/05/16 10:47:57;;;;;;;;;;;;;;;;;;4912896;29;20288;-83
2023/05/16 10:50:40;;;;;;;;;;;;;;;;;;4914892;29;19935;-83
2023/05/16 10:53:14;;;;;;;;;;;;;;;;;;4915411;29;19936;-82
2023/05/16 10:55:43;;;;;;;;;;;;;;;;;;4915180;29;19930;-82
2023/05/16 10:58:09;;;;;;;;;;;;;;;;;;4915263;29;19923;-82
2023/05/16 11:00:34;;;;;;;;;;;;;;;;;;4915173;29;19923;-83
2023/05/16 11:03:05;;;;;;;;;;;;;;;;;;4915306;29;19948;-83
2023/05/16 11:05:32;;;;;;;;;;;;;;;;;;4914472;29;19934;-83
2023/05/16 11:08:06;;;;;;;;;;;;;;;;;;4915285;29;19931;-83
2023/05/16 11:10:32;;;;;;;;;;;;;;;;;;4915625;29;19931;-86
2023/05/16 11:13:06;;;;;;;;;;;;;;;;;;4905847;29;19927;-85
2023/05/16 11:15:33;;;;;;;;;;;;;;;;;;4897140;29;19994;-85
2023/05/16 11:18:08;;;;;;;;;;;;;;;;;;4888205;29;19924;-85
2023/05/16 11:20:37;;;;;;;;;;;;;;;;;;4877440;29;19980;-86
2023/05/16 11:23:18;;;;;;;;;;;;;;;;;;4877989;29;19923;-87
2023/05/16 11:25:57;;;;;;;;;;;;;;;;;;4879541;29;20064;-86
2023/05/16 11:28:25;;;;;;;;;;;;;;;;;;4894627;29;20041;-86
2023/05/16 11:30:56;;;;;;;;;;;;;;;;;;4894441;29;20323;-85
2023/05/16 11:33:22;;;;;;;;;;;;;;;;;;4910674;29;19927;-85
2023/05/16 11:36:01;;;;;;;;;;;;;;;;;;4899970;29;19924;-88
2023/05/16 11:38:28;;;;;;;;;;;;;;;;;;4896223;29;20007;-87
2023/05/16 11:40:55;;;;;;;;;;;;;;;;;;4896513;29;19923;-86
2023/05/16 11:43:20;;;;;;;;;;;;;;;;;;4896196;29;19967;-87
2023/05/16 11:45:46;;;;;;;;;;;;;;;;;;4896189;29;20015;-86
2023/05/16 11:48:11;;;;;;;;;;;;;;;;;;4895855;29;19924;-86
2023/05/16 11:50:37;;;;;;;;;;;;;;;;;;4896142;29;19923;-86
2023/05/16 11:53:02;;;;;;;;;;;;;;;;;;4895160;29;20313;-85
2023/05/16 11:55:29;;;;;;;;;;;;;;;;;;4894927;29;19924;-89
2023/05/16 11:57:56;;;;;;;;;;;;;;;;;;4892840;29;20066;-89
2023/05/16 12:00:25;;;;;;;;;;;;;;;;;;4895433;29;19931;-91
2023/05/16 12:02:51;;;;;;;;;;;;;;;;;;4881408;29;19933;-86
2023/05/16 12:05:17;;;;;;;;;;;;;;;;;;4890478;29;19930;-90
2023/05/16 12:07:43;;;;;;;;;;;;;;;;;;4889017;29;20451;-86
2023/05/16 12:10:10;;;;;;;;;;;;;;;;;;4917599;29;20014;-88
2023/05/16 12:12:36;;;;;;;;;;;;;;;;;;4909105;29;20258;-89
2023/05/16 12:15:02;;;;;;;;;;;;;;;;;;4901036;29;19931;-90
2023/05/16 12:17:28;;;;;;;;;;;;;;;;;;4889668;29;19959;-89
2023/05/16 12:19:53;;;;;;;;;;;;;;;;;;4882299;29;19934;-87
2023/05/16 12:22:19;;;;;;;;;;;;;;;;;;4892204;29;19975;-90
2023/05/16 12:24:44;;;;;;;;;;;;;;;;;;4918967;29;19930;-87
2023/05/16 12:27:10;;;;;;;;;;;;;;;;;;4917492;29;19929;-87
2023/05/16 12:29:35;;;;;;;;;;;;;;;;;;4915584;29;19923;-87
2023/05/16 12:32:00;;;;;;;;;;;;;;;;;;4918343;29;19927;-88
2023/05/16 12:34:27;;;;;;;;;;;;;;;;;;4918193;29;19951;-88
2023/05/16 12:36:53;;;;;;;;;;;;;;;;;;4917760;29;19923;-86
2023/05/16 12:39:19;;;;;;;;;;;;;;;;;;4917866;29;20038;-89
2023/05/16 12:41:44;;;;;;;;;;;;;;;;;;4918251;29;20014;-88
2023/05/16 12:44:11;;;;;;;;;;;;;;;;;;4917818;29;19929;-88
2023/05/16 12:46:39;;;;;;;;;;;;;;;;;;4918152;29;20320;-84
2023/05/16 12:49:05;;;;;;;;;;;;;;;;;;4915579;29;19923;-87
2023/05/16 12:51:31;;;;;;;;;;;;;;;;;;4886541;29;19960;-84
2023/05/16 12:53:56;;;;;;;;;;;;;;;;;;4899423;29;19933;-88
2023/05/16 12:56:22;;;;;;;;;;;;;;;;;;4913715;29;20334;-87
2023/05/16 12:58:50;;;;;;;;;;;;;;;;;;4917587;29;19926;-88
2023/05/16 13:01:15;;;;;;;;;;;;;;;;;;4916943;29;20384;-89
2023/05/16 13:03:40;;;;;;;;;;;;;;;;;;4914169;29;19951;-89
2023/05/16 13:06:06;;;;;;;;;;;;;;;;;;4912044;29;20254;-89
2023/05/16 13:08:31;;;;;;;;;;;;;;;;;;4898666;29;20015;-89
2023/05/16 13:10:57;;;;;;;;;;;;;;;;;;4898202;29;19978;-87
2023/05/16 13:13:23;;;;;;;;;;;;;;;;;;4898551;29;20013;-86
2023/05/16 13:15:48;;;;;;;;;;;;;;;;;;4910259;29;20006;-88
2023/05/16 13:18:14;;;;;;;;;;;;;;;;;;4917938;29;19986;-89
2023/05/16 13:20:39;;;;;;;;;;;;;;;;;;4917381;29;19945;-90
2023/05/16 13:23:04;;;;;;;;;;;;;;;;;;4920354;29;20259;-87
2023/05/16 13:25:32;;;;;;;;;;;;;;;;;;4921628;29;19923;-89
2023/05/16 13:27:57;;;;;;;;;;;;;;;;;;4898858;29;19927;-89
2023/05/16 13:30:23;;;;;;;;;;;;;;;;;;4885226;29;20019;-89
2023/05/16 13:32:48;;;;;;;;;;;;;;;;;;4884131;29;19972;-89
2023/05/16 13:35:14;;;;;;;;;;;;;;;;;;4884429;29;19927;-89
2023/05/16 13:37:40;;;;;;;;;;;;;;;;;;4886248;29;19932;-88
2023/05/16 13:40:09;;;;;;;;;;;;;;;;;;4903298;29;20293;-88
2023/05/16 13:42:35;;;;;;;;;;;;;;;;;;4913912;29;20022;-88
2023/05/16 13:45:00;;;;;;;;;;;;;;;;;;4905966;29;20292;-88
2023/05/16 13:47:25;;;;;;;;;;;;;;;;;;4904976;29;19998;-88
2023/05/16 13:49:50;;;;;;;;;;;;;;;;;;4889286;29;19972;-87
2023/05/16 13:52:16;;;;;;;;;;;;;;;;;;4883987;29;19931;-87
2023/05/16 13:54:41;;;;;;;;;;;;;;;;;;4883002;29;19924;-87
2023/05/16 13:57:06;;;;;;;;;;;;;;;;;;4883494;29;19923;-87
2023/05/16 13:59:32;;;;;;;;;;;;;;;;;;4884836;29;20405;-87
2023/05/16 14:01:57;;;;;;;;;;;;;;;;;;4907315;29;19958;-90
2023/05/16 14:04:22;;;;;;;;;;;;;;;;;;4922025;29;19931;-88
2023/05/16 14:06:48;;;;;;;;;;;;;;;;;;4922104;29;19923;-90
2023/05/16 14:09:14;;;;;;;;;;;;;;;;;;4923512;29;20589;-88
2023/05/16 14:11:39;;;;;;;;;;;;;;;;;;4907981;29;19923;-85
2023/05/16 14:14:04;;;;;;;;;;;;;;;;;;4889391;29;19924;-87
2023/05/16 14:16:30;;;;;;;;;;;;;;;;;;4899207;29;19968;-89
2023/05/16 14:18:55;;;;;;;;;;;;;;;;;;4891351;29;20352;-89
2023/05/16 14:21:21;;;;;;;;;;;;;;;;;;4893491;29;19923;-88
2023/05/16 14:23:47;;;;;;;;;;;;;;;;;;4896725;29;19967;-86
2023/05/16 14:26:12;;;;;;;;;;;;;;;;;;4895122;29;19923;-90
2023/05/16 14:28:38;;;;;;;;;;;;;;;;;;4882906;29;20381;-89
2023/05/16 14:31:04;;;;;;;;;;;;;;;;;;4895582;29;19923;-86
2023/05/16 14:33:31;;;;;;;;;;;;;;;;;;4898594;29;20018;-88
2023/05/16 14:35:57;;;;;;;;;;;;;;;;;;4897045;29;20300;-90
2023/05/16 14:38:22;;;;;;;;;;;;;;;;;;4897470;29;19927;-91
2023/05/16 14:40:47;;;;;;;;;;;;;;;;;;4911720;29;19911;-92
2023/05/16 14:43:13;;;;;;;;;;;;;;;;;;4919977;29;19918;-88
2023/05/16 14:45:38;;;;;;;;;;;;;;;;;;4920396;29;20018;-91
2023/05/16 14:48:05;;;;;;;;;;;;;;;;;;4903669;29;19934;-90
2023/05/16 14:50:30;;;;;;;;;;;;;;;;;;4899232;29;19923;-91
2023/05/16 14:52:55;;;;;;;;;;;;;;;;;;4900180;29;19983;-91
2023/05/16 14:55:21;;;;;;;;;;;;;;;;;;4883933;29;20002;-92
2023/05/16 14:57:46;;;;;;;;;;;;;;;;;;4883643;29;20333;-90
2023/05/16 15:00:14;;;;;;;;;;;;;;;;;;4884994;29;19924;-91
2023/05/16 15:02:39;;;;;;;;;;;;;;;;;;4881361;29;19931;-89
2023/05/16 15:05:05;;;;;;;;;;;;;;;;;;4882293;29;20420;-86
2023/05/16 15:07:30;;;;;;;;;;;;;;;;;;4881129;29;19953;-88
2023/05/16 15:09:56;;;;;;;;;;;;;;;;;;4893392;29;19930;-88
2023/05/16 15:12:21;;;;;;;;;;;;;;;;;;4887111;29;20006;-88
2023/05/16 15:14:46;;;;;;;;;;;;;;;;;;4889832;29;19935;-89
2023/05/16 15:17:11;;;;;;;;;;;;;;;;;;4885938;29;20023;-88
2023/05/16 15:19:37;;;;;;;;;;;;;;;;;;4888606;29;19963;-87
2023/05/16 15:22:06;;;;;;;;;;;;;;;;;;4897558;29;19946;-90
2023/05/16 15:24:31;;;;;;;;;;;;;;;;;;4890592;29;19986;-89
2023/05/16 15:26:56;;;;;;;;;;;;;;;;;;4895185;29;19923;-88
2023/05/16 15:29:22;;;;;;;;;;;;;;;;;;4884276;29;20392;-89
2023/05/16 15:31:47;;;;;;;;;;;;;;;;;;4889318;29;19955;-87
2023/05/16 15:34:12;;;;;;;;;;;;;;;;;;4891254;29;19931;-90
2023/05/16 15:36:37;;;;;;;;;;;;;;;;;;4890536;29;19923;-88
2023/05/16 15:39:03;;;;;;;;;;;;;;;;;;4894068;29;19930;-86
2023/05/16 15:41:28;;;;;;;;;;;;;;;;;;4892480;29;20018;-89
2023/05/16 15:43:53;;;;;;;;;;;;;;;;;;4883010;29;20457;-89
2023/05/16 15:46:19;;;;;;;;;;;;;;;;;;4889738;29;19923;-88
2023/05/16 15:48:45;;;;;;;;;;;;;;;;;;4895663;29;19923;-90
2023/05/16 15:51:11;;;;;;;;;;;;;;;;;;4889144;29;19927;-89
2023/05/16 15:53:36;;;;;;;;;;;;;;;;;;4894765;29;19919;-87
2023/05/16 15:56:01;;;;;;;;;;;;;;;;;;4890859;29;19924;-89
2023/05/16 15:58:27;;;;;;;;;;;;;;;;;;4883832;29;20405;-86
2023/05/16 16:00:53;;;;;;;;;;;;;;;;;;4897943;29;19941;-86
2023/05/16 16:03:21;;;;;;;;;;;;;;;;;;4909367;29;19965;-88
2023/05/16 16:05:47;;;;;;;;;;;;;;;;;;4905186;29;19927;-88
2023/05/16 16:08:13;;;;;;;;;;;;;;;;;;4919989;29;19919;-86
2023/05/16 16:10:39;;;;;;;;;;;;;;;;;;4921582;29;19943;-89
2023/05/16 16:13:05;;;;;;;;;;;;;;;;;;4922098;29;19940;-88
2023/05/16 16:15:31;;;;;;;;;;;;;;;;;;4922897;29;20029;-84
2023/05/16 16:17:57;;;;;;;;;;;;;;;;;;4923335;29;19938;-90
2023/05/16 16:20:22;;;;;;;;;;;;;;;;;;4921659;29;19931;-87
2023/05/16 16:22:48;;;;;;;;;;;;;;;;;;4908706;29;20362;-85
2023/05/16 16:25:13;;;;;;;;;;;;;;;;;;4909854;29;19927;-87
2023/05/16 16:27:39;;;;;;;;;;;;;;;;;;4910414;29;19923;-90
2023/05/16 16:30:05;;;;;;;;;;;;;;;;;;4910224;29;19923;-85
2023/05/16 16:32:30;;;;;;;;;;;;;;;;;;4916028;29;20630;-86
2023/05/16 16:34:55;;;;;;;;;;;;;;;;;;4909732;29;19911;-90
2023/05/16 16:37:20;;;;;;;;;;;;;;;;;;4908929;29;19986;-88
2023/05/16 16:39:46;;;;;;;;;;;;;;;;;;4906520;29;20014;-87
2023/05/16 16:42:11;;;;;;;;;;;;;;;;;;4909407;29;19927;-90
2023/05/16 16:44:37;;;;;;;;;;;;;;;;;;4908901;29;19923;-87
2023/05/16 16:47:02;;;;;;;;;;;;;;;;;;4908083;29;19954;-90
2023/05/16 16:49:28;;;;;;;;;;;;;;;;;;4904434;29;19923;-91
2023/05/16 16:51:53;;;;;;;;;;;;;;;;;;4906005;29;20019;-90
2023/05/16 16:54:19;;;;;;;;;;;;;;;;;;4904457;29;19923;-89
2023/05/16 16:56:46;;;;;;;;;;;;;;;;;;4906558;29;19947;-89
2023/05/16 16:59:11;;;;;;;;;;;;;;;;;;4904697;29;20007;-88
2023/05/16 17:01:36;;;;;;;;;;;;;;;;;;4901264;29;20376;-88
2023/05/16 17:04:02;;;;;;;;;;;;;;;;;;4888331;29;19930;-89
2023/05/16 17:06:28;;;;;;;;;;;;;;;;;;4886674;29;19924;-88
2023/05/16 17:08:54;;;;;;;;;;;;;;;;;;4887416;29;19979;-88
2023/05/16 17:11:22;;;;;;;;;;;;;;;;;;4897253;29;19927;-87
2023/05/16 17:13:47;;;;;;;;;;;;;;;;;;4896159;29;20006;-88
2023/05/16 17:16:13;;;;;;;;;;;;;;;;;;4897085;29;19954;-88
2023/05/16 17:18:39;;;;;;;;;;;;;;;;;;4870855;29;20404;-84
2023/05/16 17:21:05;;;;;;;;;;;;;;;;;;4879679;29;20304;-89
2023/05/16 17:23:31;;;;;;;;;;;;;;;;;;4893320;29;19927;-89
2023/05/16 17:25:56;;;;;;;;;;;;;;;;;;4882267;29;19975;-88
2023/05/16 17:28:22;;;;;;;;;;;;;;;;;;4887127;29;19931;-87
2023/05/16 17:30:47;;;;;;;;;;;;;;;;;;4886052;29;19927;-87
2023/05/16 17:33:12;;;;;;;;;;;;;;;;;;4891126;29;19975;-89
2023/05/16 17:35:39;;;;;;;;;;;;;;;;;;4888805;29;19983;-87
2023/05/16 17:38:04;;;;;;;;;;;;;;;;;;4890332;29;19923;-86
2023/05/16 17:40:30;;;;;;;;;;;;;;;;;;4889780;29;19938;-85
2023/05/16 17:42:55;;;;;;;;;;;;;;;;;;4884039;29;19928;-86
2023/05/16 17:45:21;;;;;;;;;;;;;;;;;;4885423;29;20318;-86
2023/05/16 17:47:47;;;;;;;;;;;;;;;;;;4886195;29;20014;-85
2023/05/16 17:50:13;;;;;;;;;;;;;;;;;;4889645;29;20327;-84
2023/05/16 17:52:39;;;;;;;;;;;;;;;;;;4891190;29;19927;-83
2023/05/16 17:55:05;;;;;;;;;;;;;;;;;;4889993;29;19966;-84
2023/05/16 17:57:30;;;;;;;;;;;;;;;;;;4888797;29;19924;-84
2023/05/16 17:59:56;;;;;;;;;;;;;;;;;;4890292;29;20308;-83
2023/05/16 18:02:21;;;;;;;;;;;;;;;;;;4904282;29;19955;-82
2023/05/16 18:04:47;;;;;;;;;;;;;;;;;;4890148;29;19987;-82
2023/05/16 18:07:13;;;;;;;;;;;;;;;;;;4889701;29;20444;-83
2023/05/16 18:09:38;;;;;;;;;;;;;;;;;;4889956;29;20439;-83
2023/05/16 18:12:04;;;;;;;;;;;;;;;;;;4887816;29;19923;-84
2023/05/16 18:14:29;;;;;;;;;;;;;;;;;;4888522;29;19974;-84
2023/05/16 18:16:54;;;;;;;;;;;;;;;;;;4888864;29;19923;-84
2023/05/16 18:19:20;;;;;;;;;;;;;;;;;;4880040;29;19942;-84
2023/05/16 18:21:45;;;;;;;;;;;;;;;;;;4892727;29;20448;-83
2023/05/16 18:24:11;;;;;;;;;;;;;;;;;;4889381;29;20515;-84
2023/05/16 18:26:37;;;;;;;;;;;;;;;;;;4890129;29;19924;-83
2023/05/16 18:29:02;;;;;;;;;;;;;;;;;;4889633;29;20093;-84
2023/05/16 18:31:29;;;;;;;;;;;;;;;;;;4889708;29;20320;-84
2023/05/16 18:33:54;;;;;;;;;;;;;;;;;;4889935;29;19927;-83
2023/05/16 18:36:19;;;;;;;;;;;;;;;;;;4888252;29;20145;-82
2023/05/16 18:38:45;;;;;;;;;;;;;;;;;;4888442;29;19943;-83
2023/05/16 18:41:10;;;;;;;;;;;;;;;;;;4887928;29;20002;-84
2023/05/16 18:43:35;;;;;;;;;;;;;;;;;;4879612;29;20391;-82
2023/05/16 18:46:01;;;;;;;;;;;;;;;;;;4880775;29;19928;-84
2023/05/16 18:48:27;;;;;;;;;;;;;;;;;;4878224;29;19951;-82
2023/05/16 18:50:52;;;;;;;;;;;;;;;;;;4883762;29;19996;-84
2023/05/16 18:53:18;;;;;;;;;;;;;;;;;;4875170;29;19930;-82
2023/05/16 18:55:43;;;;;;;;;;;;;;;;;;4885184;29;19924;-82
2023/05/16 18:58:08;;;;;;;;;;;;;;;;;;4887059;29;19923;-83
2023/05/16 19:00:34;;;;;;;;;;;;;;;;;;4887589;29;19970;-84
2023/05/16 19:02:59;;;;;;;;;;;;;;;;;;4888196;29;19966;-81
2023/05/16 19:05:24;;;;;;;;;;;;;;;;;;4885376;29;20505;-83
2023/05/16 19:07:50;;;;;;;;;;;;;;;;;;4888067;29;19931;-84
2023/05/16 19:10:15;;;;;;;;;;;;;;;;;;4883453;29;19938;-83
2023/05/16 19:12:45;;;;;;;;;;;;;;;;;;4884757;29;20427;-83
2023/05/16 19:15:10;;;;;;;;;;;;;;;;;;4892417;29;19959;-83
2023/05/16 19:17:37;;;;;;;;;;;;;;;;;;4890134;29;20578;-83
2023/05/16 19:20:03;;;;;;;;;;;;;;;;;;4886536;29;20308;-82
2023/05/16 19:22:28;;;;;;;;;;;;;;;;;;4888008;29;19924;-83
2023/05/16 19:24:54;;;;;;;;;;;;;;;;;;4886205;29;20002;-81
2023/05/16 19:27:19;;;;;;;;;;;;;;;;;;4885386;29;19986;-81
2023/05/16 19:29:44;;;;;;;;;;;;;;;;;;4887381;29;19946;-81
2023/05/16 19:32:10;;;;;;;;;;;;;;;;;;4888953;29;19923;-82
2023/05/16 19:34:36;;;;;;;;;;;;;;;;;;4884947;29;19978;-81
2023/05/16 19:37:02;;;;;;;;;;;;;;;;;;4888443;29;19928;-81
2023/05/16 19:39:29;;;;;;;;;;;;;;;;;;4887653;29;19923;-81
2023/05/16 19:41:54;;;;;;;;;;;;;;;;;;4889125;29;20042;-82
2023/05/16 19:44:19;;;;;;;;;;;;;;;;;;4890355;29;20074;-82
2023/05/16 19:46:45;;;;;;;;;;;;;;;;;;4889167;29;19989;-81
2023/05/16 19:49:10;;;;;;;;;;;;;;;;;;4886308;29;20003;-81
2023/05/16 19:51:35;;;;;;;;;;;;;;;;;;4886247;29;20444;-83
2023/05/16 19:54:01;;;;;;;;;;;;;;;;;;4889821;29;19927;-80
2023/05/16 19:56:26;;;;;;;;;;;;;;;;;;4880427;29;19958;-81
2023/05/16 19:58:51;;;;;;;;;;;;;;;;;;4890186;29;19946;-83
2023/05/16 20:01:16;;;;;;;;;;;;;;;;;;4896551;29;19971;-82
2023/05/16 20:03:42;;;;;;;;;;;;;;;;;;4889488;29;20278;-82
2023/05/16 20:06:07;;;;;;;;;;;;;;;;;;4889162;29;19974;-83
2023/05/16 20:08:32;;;;;;;;;;;;;;;;;;4889693;29;20745;-82
2023/05/16 20:10:58;;;;;;;;;;;;;;;;;;4889788;29;19927;-81
2023/05/16 20:13:24;;;;;;;;;;;;;;;;;;4889186;29;19975;-82
2023/05/16 20:15:50;;;;;;;;;;;;;;;;;;4888464;29;20385;-82
2023/05/16 20:18:15;;;;;;;;;;;;;;;;;;4887680;29;19927;-82
2023/05/16 20:20:40;;;;;;;;;;;;;;;;;;4887340;29;20404;-81
2023/05/16 20:23:06;;;;;;;;;;;;;;;;;;4888000;29;19927;-83
2023/05/16 20:25:31;;;;;;;;;;;;;;;;;;4888418;29;19995;-82
2023/05/16 20:27:57;;;;;;;;;;;;;;;;;;4888717;29;20010;-83
2023/05/16 20:30:22;;;;;;;;;;;;;;;;;;4884745;29;20018;-83
2023/05/16 20:32:47;;;;;;;;;;;;;;;;;;4881997;29;20561;-83
2023/05/16 20:35:13;;;;;;;;;;;;;;;;;;4896585;29;19974;-88
2023/05/16 20:37:40;;;;;;;;;;;;;;;;;;4897953;29;19924;-87
2023/05/16 20:40:05;;;;;;;;;;;;;;;;;;4897792;29;20028;-86
2023/05/16 20:42:30;;;;;;;;;;;;;;;;;;4898107;29;19935;-89
2023/05/16 20:44:56;;;;;;;;;;;;;;;;;;4900295;29;19930;-88
2023/05/16 20:47:21;;;;;;;;;;;;;;;;;;4898245;29;19934;-86
2023/05/16 20:49:46;;;;;;;;;;;;;;;;;;4899080;29;20361;-85
2023/05/16 20:52:11;;;;;;;;;;;;;;;;;;4897205;29;19923;-85
2023/05/16 20:54:37;;;;;;;;;;;;;;;;;;4898955;29;19928;-86
2023/05/16 20:57:02;;;;;;;;;;;;;;;;;;4898051;29;19966;-83
2023/05/16 20:59:27;;;;;;;;;;;;;;;;;;4898444;29;19978;-85
2023/05/16 21:01:54;;;;;;;;;;;;;;;;;;4914213;29;19923;-84
2023/05/16 21:04:19;;;;;;;;;;;;;;;;;;4916490;29;19926;-85
2023/05/16 21:06:44;;;;;;;;;;;;;;;;;;4917780;29;19923;-82
2023/05/16 21:09:09;;;;;;;;;;;;;;;;;;4916627;29;19930;-85
2023/05/16 21:11:35;;;;;;;;;;;;;;;;;;4918020;29;19929;-83
2023/05/16 21:14:00;;;;;;;;;;;;;;;;;;4917486;29;20396;-84
2023/05/16 21:16:27;;;;;;;;;;;;;;;;;;4916960;29;19930;-84
2023/05/16 21:18:53;;;;;;;;;;;;;;;;;;4932411;29;19970;-84
2023/05/16 21:21:18;;;;;;;;;;;;;;;;;;4915595;29;19926;-83
2023/05/16 21:23:43;;;;;;;;;;;;;;;;;;4917514;29;20452;-83
2023/05/16 21:26:09;;;;;;;;;;;;;;;;;;4917005;29;20406;-84
2023/05/16 21:28:34;;;;;;;;;;;;;;;;;;4917181;29;19977;-84
2023/05/16 21:30:59;;;;;;;;;;;;;;;;;;4902676;29;20000;-83
2023/05/16 21:33:24;;;;;;;;;;;;;;;;;;4913457;29;20058;-85
2023/05/16 21:35:52;;;;;;;;;;;;;;;;;;4917528;29;19935;-86
2023/05/16 21:38:17;;;;;;;;;;;;;;;;;;4917066;29;20412;-84
2023/05/16 21:40:42;;;;;;;;;;;;;;;;;;4917877;29;19933;-85
2023/05/16 21:43:07;;;;;;;;;;;;;;;;;;4916753;29;19923;-84
2023/05/16 21:45:33;;;;;;;;;;;;;;;;;;4917664;29;19930;-84
2023/05/16 21:47:58;;;;;;;;;;;;;;;;;;4917074;29;19927;-84
2023/05/16 21:50:23;;;;;;;;;;;;;;;;;;4921952;29;20328;-81
2023/05/16 21:52:49;;;;;;;;;;;;;;;;;;4923546;29;20349;-82
2023/05/16 21:55:14;;;;;;;;;;;;;;;;;;4924497;29;19927;-82
2023/05/16 21:57:39;;;;;;;;;;;;;;;;;;4925155;29;20343;-83
2023/05/16 22:00:08;;;;;;;;;;;;;;;;;;4918831;29;19935;-84
2023/05/16 22:02:33;;;;;;;;;;;;;;;;;;4889498;29;19971;-84
2023/05/16 22:04:59;;;;;;;;;;;;;;;;;;4879576;29;19951;-86
2023/05/16 22:07:27;;;;;;;;;;;;;;;;;;4879636;29;20392;-86
2023/05/16 22:09:53;;;;;;;;;;;;;;;;;;4879965;29;20009;-86
2023/05/16 22:12:18;;;;;;;;;;;;;;;;;;4879886;29;20014;-85
2023/05/16 22:14:44;;;;;;;;;;;;;;;;;;4879535;29;20486;-86
2023/05/16 22:17:09;;;;;;;;;;;;;;;;;;4878836;29;19931;-83
2023/05/16 22:19:34;;;;;;;;;;;;;;;;;;4879205;29;19955;-84
2023/05/16 22:22:00;;;;;;;;;;;;;;;;;;4879427;29;20004;-84
2023/05/16 22:24:25;;;;;;;;;;;;;;;;;;4876965;29;19970;-86